createdAt,value
2023-04-07T00:01:36.749Z,59.30
2023-04-07T00:04:03.908Z,59.50
2023-04-07T00:06:31.395Z,59.70
2023-04-07T00:08:58.138Z,59.80
2023-04-07T00:11:24.969Z,60.00
2023-04-07T00:13:52.058Z,60.10
2023-04-07T00:16:19.203Z,60.30
2023-04-07T00:18:47.240Z,60.50
2023-04-07T00:21:14.190Z,60.80
2023-04-07T00:23:41.007Z,61.00
2023-04-07T00:26:07.961Z,61.00
2023-04-07T00:28:36.222Z,60.90
2023-04-07T00:31:03.095Z,61.20
2023-04-07T00:33:29.910Z,61.50
2023-04-07T00:35:58.652Z,61.60
2023-04-07T00:38:25.803Z,61.70
2023-04-07T00:40:59.224Z,61.80
2023-04-07T00:43:26.646Z,62.00
2023-04-07T00:45:54.159Z,62.10
2023-04-07T00:48:21.914Z,62.30
2023-04-07T00:50:48.847Z,62.40
2023-04-07T00:53:16.024Z,62.60
2023-04-07T00:55:43.173Z,62.80
2023-04-07T00:58:10.280Z,63.00
2023-04-07T01:00:55.279Z,63.10
2023-04-07T01:03:34.841Z,63.00
2023-04-07T01:06:05.638Z,63.20
2023-04-07T01:11:32.704Z,63.60
2023-04-07T01:14:00.875Z,63.80
2023-04-07T01:16:40.040Z,63.70
2023-04-07T01:19:32.380Z,64.10
2023-04-07T01:22:00.905Z,64.40
2023-04-07T01:24:58.740Z,64.50
2023-04-07T01:27:42.666Z,64.90
2023-04-07T01:30:13.019Z,65.10
2023-04-07T01:32:41.668Z,65.20
2023-04-07T01:35:12.974Z,65.40
2023-04-07T01:37:40.965Z,65.60
2023-04-07T01:40:08.767Z,65.60
2023-04-07T01:42:38.340Z,65.80
2023-04-07T01:45:06.025Z,65.80
2023-04-07T01:47:34.305Z,66.10
2023-04-07T01:50:04.651Z,66.20
2023-04-07T01:52:33.580Z,66.60
2023-04-07T01:55:00.808Z,67.10
2023-04-07T01:57:28.306Z,67.40
2023-04-07T02:00:00.993Z,67.70
2023-04-07T02:02:45.504Z,67.90
2023-04-07T02:05:20.868Z,67.80
2023-04-07T02:08:01.288Z,69.10
2023-04-07T02:10:30.111Z,68.30
2023-04-07T02:13:00.153Z,68.40
2023-04-07T02:15:27.906Z,68.20
2023-04-07T02:17:56.461Z,68.60
2023-04-07T02:20:24.271Z,68.80
2023-04-07T02:22:51.290Z,69.10
2023-04-07T02:25:29.268Z,69.30
2023-04-07T02:27:57.739Z,69.50
2023-04-07T02:30:24.946Z,69.70
2023-04-07T02:32:52.434Z,70.00
2023-04-07T02:35:20.537Z,70.10
2023-04-07T02:37:47.490Z,70.30
2023-04-07T02:40:14.824Z,70.50
2023-04-07T02:42:42.128Z,70.70
2023-04-07T02:45:10.368Z,70.80
2023-04-07T02:47:38.603Z,71.10
2023-04-07T02:50:05.999Z,71.50
2023-04-07T02:52:35.763Z,71.60
2023-04-07T02:55:07.326Z,71.90
2023-04-07T02:57:35.234Z,71.90
2023-04-07T03:00:05.715Z,72.10
2023-04-07T03:02:50.995Z,72.40
2023-04-07T03:05:18.774Z,72.50
2023-04-07T03:07:45.544Z,72.60
2023-04-07T03:10:12.415Z,72.80
2023-04-07T03:12:39.209Z,73.00
2023-04-07T03:15:07.206Z,73.10
2023-04-07T03:17:35.398Z,73.10
2023-04-07T03:20:02.362Z,73.10
2023-04-07T03:22:30.613Z,73.30
2023-04-07T03:24:57.624Z,73.30
2023-04-07T03:27:25.768Z,73.60
2023-04-07T03:29:53.186Z,73.60
2023-04-07T03:32:20.920Z,73.50
2023-04-07T03:34:47.737Z,73.70
2023-04-07T03:37:14.747Z,73.90
2023-04-07T03:39:42.375Z,74.00
2023-04-07T03:42:24.551Z,74.10
2023-04-07T03:44:56.737Z,74.20
2023-04-07T03:47:24.361Z,74.30
2023-04-07T03:49:56.456Z,74.50
2023-04-07T03:52:23.778Z,74.70
2023-04-07T03:54:54.549Z,74.90
2023-04-07T03:57:26.231Z,75.00
2023-04-07T03:59:53.329Z,75.10
2023-04-07T04:02:20.237Z,75.40
2023-04-07T04:04:51.174Z,75.60
2023-04-07T04:07:18.827Z,75.40
2023-04-07T04:09:49.880Z,75.50
2023-04-07T04:12:17.680Z,75.80
2023-04-07T04:14:59.285Z,76.20
2023-04-07T04:17:27.133Z,76.40
2023-04-07T04:19:55.213Z,76.40
2023-04-07T04:22:27.989Z,76.50
2023-04-07T04:24:57.728Z,76.70
2023-04-07T04:27:26.921Z,76.80
2023-04-07T04:30:01.797Z,76.70
2023-04-07T04:32:38.255Z,76.70
2023-04-07T04:35:06.406Z,76.80
2023-04-07T04:37:37.758Z,76.80
2023-04-07T04:40:10.084Z,77.00
2023-04-07T04:42:37.116Z,77.20
2023-04-07T04:45:05.128Z,77.40
2023-04-07T04:47:33.296Z,77.80
2023-04-07T04:50:03.218Z,77.80
2023-04-07T04:52:34.487Z,77.80
2023-04-07T04:55:02.077Z,77.80
2023-04-07T04:57:29.590Z,77.90
2023-04-07T04:59:57.749Z,78.00
2023-04-07T05:02:24.621Z,77.90
2023-04-07T05:04:52.311Z,77.90
2023-04-07T05:07:25.390Z,77.70
2023-04-07T05:09:52.526Z,77.70
2023-04-07T05:12:22.291Z,77.60
2023-04-07T05:14:55.574Z,77.80
2023-04-07T05:17:23.317Z,78.00
2023-04-07T05:19:50.254Z,78.00
2023-04-07T05:22:28.563Z,78.10
2023-04-07T05:24:55.496Z,78.30
2023-04-07T05:27:22.390Z,78.20
2023-04-07T05:29:53.950Z,78.20
2023-04-07T05:32:29.318Z,78.50
2023-04-07T05:34:57.956Z,78.90
2023-04-07T05:37:29.000Z,79.20
2023-04-07T05:39:57.317Z,79.40
2023-04-07T05:42:24.773Z,79.50
2023-04-07T05:44:54.771Z,79.40
2023-04-07T05:47:23.567Z,79.30
2023-04-07T05:49:51.235Z,79.20
2023-04-07T05:52:18.427Z,79.00
2023-04-07T05:54:51.439Z,79.20
2023-04-07T05:57:18.268Z,79.50
2023-04-07T05:59:47.244Z,79.70
2023-04-07T06:02:14.426Z,80.10
2023-04-07T06:04:41.417Z,80.60
2023-04-07T06:07:11.719Z,80.70
2023-04-07T06:09:42.744Z,81.00
2023-04-07T06:12:10.736Z,80.90
2023-04-07T06:14:37.890Z,80.90
2023-04-07T06:17:05.019Z,80.80
2023-04-07T06:19:32.855Z,81.00
2023-04-07T06:22:01.002Z,81.00
2023-04-07T06:24:27.890Z,80.90
2023-04-07T06:26:56.900Z,80.90
2023-04-07T06:29:23.787Z,81.30
2023-04-07T06:31:51.260Z,81.40
2023-04-07T06:34:19.242Z,81.10
2023-04-07T06:36:46.750Z,80.90
2023-04-07T06:39:13.689Z,80.90
2023-04-07T06:41:43.028Z,81.10
2023-04-07T06:44:13.379Z,81.30
2023-04-07T06:46:41.727Z,80.90
2023-04-07T06:49:08.827Z,80.90
2023-04-07T06:51:35.633Z,81.10
2023-04-07T06:54:02.498Z,80.90
2023-04-07T06:56:29.256Z,80.30
2023-04-07T06:58:56.175Z,80.50
2023-04-07T07:01:22.999Z,80.80
2023-04-07T07:03:50.203Z,81.00
2023-04-07T07:06:17.244Z,80.90
2023-04-07T07:08:44.091Z,81.30
2023-04-07T07:11:11.228Z,81.90
2023-04-07T07:13:38.158Z,82.10
2023-04-07T07:16:05.433Z,82.00
2023-04-07T07:18:32.218Z,82.00
2023-04-07T07:20:59.071Z,81.70
2023-04-07T07:23:25.912Z,81.70
2023-04-07T07:25:52.804Z,81.70
2023-04-07T07:28:21.646Z,81.50
2023-04-07T07:30:48.538Z,81.30
2023-04-07T07:33:15.451Z,81.00
2023-04-07T07:35:42.471Z,80.90
2023-04-07T07:38:09.283Z,80.90
2023-04-07T07:40:36.137Z,80.60
2023-04-07T07:43:02.961Z,79.90
2023-04-07T07:45:29.753Z,79.60
2023-04-07T07:47:56.602Z,79.30
2023-04-07T07:50:23.606Z,79.10
2023-04-07T07:52:50.409Z,78.70
2023-04-07T07:55:17.167Z,78.60
2023-04-07T07:57:44.026Z,78.50
2023-04-07T08:00:12.049Z,78.30
2023-04-07T08:02:41.919Z,78.20
2023-04-07T08:05:09.085Z,78.00
2023-04-07T08:07:36.510Z,77.50
2023-04-07T08:10:03.347Z,76.90
2023-04-07T08:12:30.198Z,76.30
2023-04-07T08:14:56.975Z,75.90
2023-04-07T08:17:23.924Z,75.70
2023-04-07T08:19:50.792Z,75.30
2023-04-07T08:22:19.574Z,75.00
2023-04-07T08:24:47.389Z,75.90
2023-04-07T08:27:14.242Z,74.70
2023-04-07T08:29:41.017Z,74.70
2023-04-07T08:32:07.868Z,74.70
2023-04-07T08:34:34.804Z,74.10
2023-04-07T08:37:01.679Z,73.90
2023-04-07T08:39:28.774Z,73.90
2023-04-07T08:41:57.049Z,73.90
2023-04-07T08:44:27.996Z,74.00
2023-04-07T08:46:57.430Z,73.70
2023-04-07T08:49:27.359Z,74.70
2023-04-07T08:51:56.715Z,73.70
2023-04-07T08:54:24.574Z,73.50
2023-04-07T08:56:52.071Z,72.90
2023-04-07T08:59:18.930Z,73.50
2023-04-07T09:01:47.370Z,74.00
2023-04-07T09:04:14.539Z,74.10
2023-04-07T09:06:41.380Z,74.00
2023-04-07T09:09:08.211Z,74.60
2023-04-07T09:11:37.334Z,74.80
2023-04-07T09:14:04.669Z,74.60
2023-04-07T09:16:32.092Z,74.30
2023-04-07T09:18:59.332Z,73.70
2023-04-07T09:21:27.352Z,73.20
2023-04-07T09:23:54.214Z,73.20
2023-04-07T09:26:27.221Z,73.60
2023-04-07T09:29:04.041Z,73.70
2023-04-07T09:31:51.684Z,72.20
2023-04-07T09:34:26.176Z,71.40
2023-04-07T09:36:52.995Z,71.80
2023-04-07T09:39:20.325Z,71.60
2023-04-07T09:41:47.579Z,71.60
2023-04-07T09:44:14.551Z,70.90
2023-04-07T09:46:58.650Z,70.00
2023-04-07T09:49:26.470Z,69.40
2023-04-07T09:51:57.759Z,69.20
2023-04-07T09:54:42.029Z,68.70
2023-04-07T09:57:12.247Z,68.20
2023-04-07T09:59:42.448Z,68.00
2023-04-07T10:02:09.367Z,67.50
2023-04-07T10:04:37.517Z,67.00
2023-04-07T10:07:05.488Z,65.60
2023-04-07T10:09:32.709Z,65.00
2023-04-07T10:12:00.049Z,63.90
2023-04-07T10:14:31.727Z,63.20
2023-04-07T10:17:03.326Z,62.70
2023-04-07T10:19:34.073Z,62.50
2023-04-07T10:22:03.012Z,62.40
2023-04-07T10:24:58.843Z,63.40
2023-04-07T10:27:58.210Z,63.00
2023-04-07T10:30:35.479Z,62.70
2023-04-07T10:33:02.869Z,61.80
2023-04-07T10:36:09.642Z,61.70
2023-04-07T10:39:09.436Z,63.20
2023-04-07T10:41:42.369Z,60.60
2023-04-07T10:44:31.139Z,59.10
2023-04-07T10:47:05.955Z,58.50
2023-04-07T10:49:34.578Z,58.00
2023-04-07T10:52:23.074Z,57.90
2023-04-07T10:55:29.804Z,57.20
2023-04-07T10:58:29.112Z,57.00
2023-04-07T11:01:07.899Z,56.40
2023-04-07T11:03:36.791Z,56.50
2023-04-07T11:06:08.629Z,56.40
2023-04-07T11:08:36.975Z,56.00
2023-04-07T11:11:09.570Z,55.50
2023-04-07T11:13:43.550Z,54.30
2023-04-07T11:16:11.316Z,53.60
2023-04-07T11:18:38.895Z,54.10
2023-04-07T11:21:08.321Z,53.20
2023-04-07T11:23:42.355Z,53.90
2023-04-07T11:26:12.941Z,53.50
2023-04-07T11:28:51.620Z,52.30
2023-04-07T11:31:31.952Z,52.10
2023-04-07T11:34:00.701Z,51.60
2023-04-07T11:36:41.652Z,52.50
2023-04-07T11:39:21.535Z,52.90
2023-04-07T11:41:50.570Z,52.70
2023-04-07T11:44:17.871Z,50.60
2023-04-07T11:46:55.486Z,50.60
2023-04-07T11:49:26.065Z,50.20
2023-04-07T11:52:04.392Z,50.40
2023-04-07T11:54:46.974Z,51.10
2023-04-07T11:57:14.581Z,50.70
2023-04-07T11:59:41.906Z,49.90
2023-04-07T12:02:09.422Z,49.30
2023-04-07T12:04:40.146Z,49.80
2023-04-07T12:07:11.724Z,50.00
2023-04-07T12:09:38.719Z,49.30
2023-04-07T12:12:07.930Z,49.00
2023-04-07T12:14:35.985Z,49.10
2023-04-07T12:17:03.729Z,49.30
2023-04-07T12:19:36.213Z,48.70
2023-04-07T12:22:03.947Z,48.40
2023-04-07T12:24:32.313Z,48.10
2023-04-07T12:26:59.682Z,49.30
2023-04-07T12:29:26.703Z,47.80
2023-04-07T12:31:53.617Z,47.00
2023-04-07T12:34:20.655Z,46.10
2023-04-07T12:36:48.152Z,45.60
2023-04-07T12:39:16.467Z,46.20
2023-04-07T12:41:45.373Z,46.30
2023-04-07T12:44:12.132Z,45.90
2023-04-07T12:46:38.952Z,45.80
2023-04-07T12:49:05.949Z,46.50
2023-04-07T12:51:33.776Z,46.00
2023-04-07T12:54:00.865Z,44.30
2023-04-07T12:56:28.619Z,43.50
2023-04-07T12:58:55.466Z,44.20
2023-04-07T13:01:22.321Z,43.50
2023-04-07T13:03:49.468Z,42.70
2023-04-07T13:06:17.456Z,42.30
2023-04-07T13:08:44.249Z,41.50
2023-04-07T13:11:11.160Z,41.00
2023-04-07T13:13:38.052Z,41.20
2023-04-07T13:16:05.032Z,41.10
2023-04-07T13:18:31.812Z,40.40
2023-04-07T13:21:33.735Z,39.60
2023-04-07T13:23:46.544Z,39.20
2023-04-07T13:26:13.428Z,38.80
2023-04-07T13:28:40.474Z,39.40
2023-04-07T13:31:07.762Z,38.10
2023-04-07T13:33:35.319Z,37.70
2023-04-07T13:36:02.199Z,37.50
2023-04-07T13:38:29.162Z,37.90
2023-04-07T13:40:55.952Z,37.40
2023-04-07T13:43:22.786Z,36.80
2023-04-07T13:45:49.927Z,36.80
2023-04-07T13:48:17.181Z,36.00
2023-04-07T13:50:44.051Z,35.90
2023-04-07T13:53:10.864Z,35.00
2023-04-07T13:55:37.773Z,34.20
2023-04-07T13:58:04.938Z,33.90
2023-04-07T14:00:31.990Z,33.80
2023-04-07T14:02:59.267Z,34.00
2023-04-07T14:05:26.466Z,33.60
2023-04-07T14:07:54.400Z,34.30
2023-04-07T14:10:21.587Z,34.30
2023-04-07T14:12:48.464Z,33.90
2023-04-07T14:15:16.435Z,33.40
2023-04-07T14:17:45.382Z,32.80
2023-04-07T14:20:12.234Z,32.00
2023-04-07T14:22:39.099Z,31.90
2023-04-07T14:25:06.462Z,31.60
2023-04-07T14:27:33.401Z,31.70
2023-04-07T14:30:00.315Z,31.90
2023-04-07T14:32:29.424Z,31.30
2023-04-07T14:34:56.667Z,30.80
2023-04-07T14:37:26.439Z,31.10
2023-04-07T14:40:02.514Z,30.30
2023-04-07T14:42:31.182Z,30.00
2023-04-07T14:44:59.648Z,29.90
2023-04-07T14:47:27.364Z,29.70
2023-04-07T14:49:54.485Z,29.80
2023-04-07T14:52:24.638Z,29.80
2023-04-07T14:54:51.682Z,29.60
2023-04-07T14:57:18.476Z,29.10
2023-04-07T14:59:47.238Z,29.40
2023-04-07T15:02:14.039Z,29.80
2023-04-07T15:04:41.041Z,30.20
2023-04-07T15:07:08.102Z,29.40
2023-04-07T15:09:34.894Z,29.30
2023-04-07T15:12:02.200Z,29.20
2023-04-07T15:14:29.510Z,28.70
2023-04-07T15:16:56.288Z,28.50
2023-04-07T15:19:23.066Z,28.50
2023-04-07T15:21:49.809Z,27.90
2023-04-07T15:24:16.805Z,27.30
2023-04-07T15:26:43.804Z,27.30
2023-04-07T15:29:10.624Z,27.70
2023-04-07T15:31:37.637Z,28.60
2023-04-07T15:34:05.318Z,27.30
2023-04-07T15:36:32.325Z,27.80
2023-04-07T15:39:04.218Z,27.40
2023-04-07T15:41:31.585Z,27.10
2023-04-07T15:44:02.780Z,27.40
2023-04-07T15:46:29.700Z,27.40
2023-04-07T15:48:56.474Z,27.50
2023-04-07T15:51:23.757Z,27.10
2023-04-07T15:53:50.662Z,27.10
2023-04-07T15:56:17.671Z,26.90
2023-04-07T15:58:45.898Z,26.90
2023-04-07T16:01:13.003Z,26.40
2023-04-07T16:03:40.138Z,26.60
2023-04-07T16:06:07.087Z,26.70
2023-04-07T16:08:33.914Z,26.60
2023-04-07T16:11:00.774Z,26.70
2023-04-07T16:13:27.540Z,26.90
2023-04-07T16:15:57.689Z,26.70
2023-04-07T16:18:24.556Z,26.80
2023-04-07T16:20:51.502Z,27.10
2023-04-07T16:23:18.312Z,27.60
2023-04-07T16:25:45.516Z,27.70
2023-04-07T16:28:12.306Z,27.70
2023-04-07T16:30:39.151Z,27.70
2023-04-07T16:33:06.105Z,27.60
2023-04-07T16:35:32.985Z,27.80
2023-04-07T16:38:04.459Z,27.90
2023-04-07T16:40:32.268Z,27.90
2023-04-07T16:42:59.310Z,28.00
2023-04-07T16:45:26.216Z,28.20
2023-04-07T16:47:53.313Z,28.20
2023-04-07T16:50:20.425Z,28.20
2023-04-07T16:52:47.819Z,28.50
2023-04-07T16:55:14.719Z,28.70
2023-04-07T16:57:41.551Z,28.80
2023-04-07T17:00:09.268Z,29.10
2023-04-07T17:02:36.329Z,29.00
2023-04-07T17:05:03.696Z,29.00
2023-04-07T17:07:30.462Z,29.00
2023-04-07T17:09:57.381Z,29.50
2023-04-07T17:12:24.164Z,29.60
2023-04-07T17:14:51.004Z,29.70
2023-04-07T17:17:17.864Z,29.70
2023-04-07T17:19:44.856Z,29.90
2023-04-07T17:22:11.687Z,29.90
2023-04-07T17:24:38.539Z,29.90
2023-04-07T17:27:05.559Z,29.90
2023-04-07T17:29:33.581Z,30.00
2023-04-07T17:32:00.501Z,30.20
2023-04-07T17:34:27.850Z,30.50
2023-04-07T17:36:54.729Z,30.50
2023-04-07T17:39:22.087Z,30.80
2023-04-07T17:41:48.957Z,31.10
2023-04-07T17:44:15.968Z,31.00
2023-04-07T17:46:42.983Z,31.40
2023-04-07T17:49:10.013Z,31.50
2023-04-07T17:51:37.020Z,31.70
2023-04-07T17:54:04.238Z,32.10
2023-04-07T17:56:30.983Z,32.50
2023-04-07T17:58:57.847Z,32.70
2023-04-07T18:01:25.005Z,33.40
2023-04-07T18:03:53.509Z,33.70
2023-04-07T18:06:21.010Z,34.00
2023-04-07T18:08:48.714Z,34.30
2023-04-07T18:11:16.159Z,35.00
2023-04-07T18:13:43.140Z,35.50
2023-04-07T18:16:11.921Z,35.10
2023-04-07T18:18:39.010Z,35.40
2023-04-07T18:21:07.101Z,35.80
2023-04-07T18:23:34.549Z,36.20
2023-04-07T18:26:05.167Z,36.30
2023-04-07T18:28:32.466Z,36.60
2023-04-07T18:31:07.689Z,36.80
2023-04-07T18:33:35.816Z,36.60
2023-04-07T18:36:07.631Z,38.10
2023-04-07T18:38:35.756Z,37.50
2023-04-07T18:41:02.638Z,37.40
2023-04-07T18:43:30.243Z,37.60
2023-04-07T18:45:57.082Z,37.80
2023-04-07T18:48:24.089Z,39.20
2023-04-07T18:50:54.720Z,38.40
2023-04-07T18:53:29.536Z,38.50
2023-04-07T18:56:11.102Z,38.70
2023-04-07T18:58:49.000Z,38.80
2023-04-07T19:01:26.863Z,39.10
2023-04-07T19:04:01.379Z,39.00
2023-04-07T19:06:39.022Z,39.40
2023-04-07T19:09:16.496Z,39.80
2023-04-07T19:11:54.688Z,40.10
2023-04-07T19:14:29.892Z,40.30
2023-04-07T19:16:58.384Z,40.70
2023-04-07T19:19:25.262Z,40.80
2023-04-07T19:21:52.125Z,41.10
2023-04-07T19:24:19.063Z,42.50
2023-04-07T19:26:46.048Z,41.40
2023-04-07T19:29:12.789Z,41.60
2023-04-07T19:31:39.999Z,41.80
2023-04-07T19:34:06.813Z,42.00
2023-04-07T19:36:33.633Z,42.00
2023-04-07T19:39:00.494Z,42.20
2023-04-07T19:41:27.774Z,42.40
2023-04-07T19:43:54.647Z,42.60
2023-04-07T19:46:21.635Z,42.70
2023-04-07T19:48:48.582Z,42.90
2023-04-07T19:51:16.551Z,43.10
2023-04-07T19:53:43.480Z,43.20
2023-04-07T19:56:11.202Z,43.50
2023-04-07T19:58:38.561Z,43.70
2023-04-07T20:01:05.636Z,43.60
2023-04-07T20:03:32.590Z,43.80
2023-04-07T20:05:59.660Z,44.00
2023-04-07T20:08:26.761Z,44.00
2023-04-07T20:10:53.908Z,44.10
2023-04-07T20:13:23.884Z,45.40
2023-04-07T20:15:50.930Z,44.30
2023-04-07T20:18:18.513Z,44.50
2023-04-07T20:20:45.976Z,44.60
2023-04-07T20:23:14.822Z,44.60
2023-04-07T20:25:42.504Z,44.50
2023-04-07T20:28:09.305Z,44.60
2023-04-07T20:30:36.670Z,44.70
2023-04-07T20:33:03.666Z,44.70
2023-04-07T20:35:30.589Z,44.90
2023-04-07T20:37:57.433Z,44.90
2023-04-07T20:40:24.275Z,45.10
2023-04-07T20:42:51.093Z,45.30
2023-04-07T20:45:17.998Z,45.30
2023-04-07T20:47:45.481Z,45.30
2023-04-07T20:50:12.405Z,45.60
2023-04-07T20:52:40.356Z,45.80
2023-04-07T20:55:08.058Z,46.10
2023-04-07T20:57:34.937Z,46.10
2023-04-07T21:00:02.568Z,46.20
2023-04-07T21:02:29.603Z,46.10
2023-04-07T21:04:56.818Z,46.30
2023-04-07T21:07:24.287Z,46.60
2023-04-07T21:09:51.233Z,46.50
2023-04-07T21:12:18.137Z,46.60
2023-04-07T21:14:45.672Z,46.70
2023-04-07T21:17:12.410Z,46.80
2023-04-07T21:19:39.280Z,46.90
2023-04-07T21:22:06.051Z,46.80
2023-04-07T21:24:33.095Z,46.60
2023-04-07T21:26:59.832Z,46.70
2023-04-07T21:29:29.686Z,46.60
2023-04-07T21:31:56.491Z,48.10
2023-04-07T21:34:23.279Z,46.90
2023-04-07T21:36:50.107Z,46.90
2023-04-07T21:39:16.938Z,46.70
2023-04-07T21:41:43.712Z,46.70
2023-04-07T21:44:11.109Z,46.80
2023-04-07T21:46:38.058Z,47.00
2023-04-07T21:49:05.099Z,47.00
2023-04-07T21:51:33.243Z,47.20
2023-04-07T21:54:00.259Z,47.20
2023-04-07T21:56:28.968Z,47.30
2023-04-07T21:58:56.196Z,47.20
2023-04-07T22:01:23.040Z,47.20
2023-04-07T22:03:50.591Z,47.40
2023-04-07T22:06:17.473Z,47.70
2023-04-07T22:08:51.668Z,47.70
2023-04-07T22:11:27.892Z,47.90
2023-04-07T22:13:54.716Z,48.10
2023-04-07T22:16:21.594Z,48.10
2023-04-07T22:18:49.031Z,48.20
2023-04-07T22:21:16.249Z,48.20
2023-04-07T22:23:43.809Z,49.60
2023-04-07T22:26:10.675Z,48.60
2023-04-07T22:28:37.442Z,48.70
2023-04-07T22:31:04.649Z,48.80
2023-04-07T22:33:31.606Z,49.00
2023-04-07T22:35:58.581Z,49.10
2023-04-07T22:38:25.509Z,49.30
2023-04-07T22:40:52.373Z,49.60
2023-04-07T22:43:19.111Z,49.40
2023-04-07T22:45:46.277Z,49.60
2023-04-07T22:48:13.371Z,49.90
2023-04-07T22:50:40.298Z,50.00
2023-04-07T22:53:07.910Z,50.20
2023-04-07T22:55:35.320Z,50.30
2023-04-07T22:58:02.168Z,50.40
2023-04-07T23:00:29.075Z,50.40
2023-04-07T23:02:55.916Z,50.40
2023-04-07T23:05:22.903Z,50.50
2023-04-07T23:07:51.936Z,50.50
2023-04-07T23:10:18.824Z,50.70
2023-04-07T23:12:46.341Z,50.80
2023-04-07T23:15:13.262Z,50.90
2023-04-07T23:17:40.495Z,50.90
2023-04-07T23:20:08.177Z,50.90
2023-04-07T23:22:34.934Z,50.90
2023-04-07T23:25:01.834Z,51.10
2023-04-07T23:27:28.597Z,51.10
2023-04-07T23:29:55.541Z,51.20
2023-04-07T23:32:22.714Z,51.20
2023-04-07T23:34:49.519Z,51.20
2023-04-07T23:37:16.306Z,51.30
2023-04-07T23:39:43.544Z,51.40
2023-04-07T23:42:10.578Z,51.50
2023-04-07T23:44:37.370Z,51.70
2023-04-07T23:47:04.189Z,51.90
2023-04-07T23:49:31.244Z,52.30
2023-04-07T23:51:58.012Z,52.40
2023-04-07T23:54:24.957Z,52.10
2023-04-07T23:56:51.967Z,52.30
2023-04-07T23:59:18.976Z,52.50
